createdAt,value
2023-08-19T00:00:20.455Z,95700.19
2023-08-19T00:02:47.646Z,95695.28
2023-08-19T00:05:14.909Z,95701.34
2023-08-19T00:07:42.058Z,95693.06
2023-08-19T00:10:09.422Z,95699.09
2023-08-19T00:12:36.842Z,95696.88
2023-08-19T00:15:04.395Z,95697.69
2023-08-19T00:17:31.911Z,95697.84
2023-08-19T00:19:59.291Z,95691.47
2023-08-19T00:22:26.403Z,95695.59
2023-08-19T00:24:53.661Z,95697.41
2023-08-19T00:27:21.028Z,95691.97
2023-08-19T00:29:48.304Z,95691.25
2023-08-19T00:32:16.543Z,95700.13
2023-08-19T00:34:44.414Z,95697.03
2023-08-19T00:37:11.785Z,95696.25
2023-08-19T00:39:39.021Z,95691.81
2023-08-19T00:42:08.038Z,95692.31
2023-08-19T00:44:35.497Z,95693.94
2023-08-19T00:47:03.197Z,95687.75
2023-08-19T00:49:31.428Z,95690.66
2023-08-19T00:51:59.812Z,95684.31
2023-08-19T00:54:27.109Z,95684.47
2023-08-19T00:56:54.466Z,95701.34
2023-08-19T00:59:22.430Z,95691.88
2023-08-19T01:01:49.655Z,95687.97
2023-08-19T01:04:16.937Z,95687.97
2023-08-19T01:07:25.478Z,95690.41
2023-08-19T01:10:04.552Z,95681.63
2023-08-19T01:12:43.884Z,95677.88
2023-08-19T01:15:58.504Z,95667.78
2023-08-19T01:18:28.138Z,95673.53
2023-08-19T01:20:56.002Z,95673.56
2023-08-19T01:23:38.959Z,95667.25
2023-08-19T01:26:07.169Z,95663.38
2023-08-19T01:28:34.361Z,95666.59
2023-08-19T01:31:01.825Z,95658.22
2023-08-19T01:33:32.984Z,95658.94
2023-08-19T01:36:29.434Z,95659.31
2023-08-19T01:39:02.829Z,95655.91
2023-08-19T01:41:31.791Z,95658.03
2023-08-19T01:44:01.198Z,95658.63
2023-08-19T01:46:29.118Z,95650.19
2023-08-19T01:48:56.495Z,95654.63
2023-08-19T01:51:23.916Z,95653.88
2023-08-19T01:53:51.340Z,95659.59
2023-08-19T01:56:19.041Z,95656.88
2023-08-19T01:58:46.493Z,95662.00
2023-08-19T02:01:14.531Z,95658.75
2023-08-19T02:03:41.830Z,95654.63
2023-08-19T02:06:09.158Z,95651.03
2023-08-19T02:08:36.510Z,95649.53
2023-08-19T02:11:03.787Z,95657.06
2023-08-19T02:13:31.239Z,95660.97
2023-08-19T02:15:58.506Z,95652.97
2023-08-19T02:18:26.747Z,95660.22
2023-08-19T02:20:54.249Z,95660.72
2023-08-19T02:23:21.388Z,95665.59
2023-08-19T02:25:51.261Z,95664.72
2023-08-19T02:28:18.436Z,95671.72
2023-08-19T02:30:45.688Z,95668.94
2023-08-19T02:33:12.996Z,95669.03
2023-08-19T02:35:40.277Z,95673.06
2023-08-19T02:38:08.446Z,95676.91
2023-08-19T02:40:35.606Z,95673.84
2023-08-19T02:43:03.800Z,95673.25
2023-08-19T02:45:36.483Z,95671.50
2023-08-19T02:48:04.343Z,95671.25
2023-08-19T02:50:31.782Z,95678.44
2023-08-19T02:52:59.163Z,95670.31
2023-08-19T02:55:26.599Z,95676.53
2023-08-19T02:57:53.989Z,95678.97
2023-08-19T03:00:21.455Z,95671.22
2023-08-19T03:02:49.260Z,95672.22
2023-08-19T03:05:16.545Z,95672.47
2023-08-19T03:07:43.784Z,95666.13
2023-08-19T03:10:11.271Z,95666.69
2023-08-19T03:12:38.638Z,95654.81
2023-08-19T03:15:06.460Z,95663.66
2023-08-19T03:17:33.934Z,95674.41
2023-08-19T03:20:01.781Z,95669.69
2023-08-19T03:22:30.060Z,95662.78
2023-08-19T03:24:58.016Z,95669.91
2023-08-19T03:27:25.497Z,95663.72
2023-08-19T03:29:52.796Z,95662.84
2023-08-19T03:32:20.157Z,95662.53
2023-08-19T03:34:47.628Z,95667.22
2023-08-19T03:37:15.011Z,95662.44
2023-08-19T03:39:42.389Z,95674.91
2023-08-19T03:42:09.647Z,95672.91
2023-08-19T03:44:36.879Z,95661.81
2023-08-19T03:47:04.909Z,95674.56
2023-08-19T03:49:32.400Z,95675.50
2023-08-19T03:51:59.779Z,95675.22
2023-08-19T03:54:27.312Z,95688.59
2023-08-19T03:56:54.656Z,95684.41
2023-08-19T03:59:21.955Z,95678.88
2023-08-19T04:01:49.283Z,95678.88
2023-08-19T04:04:16.768Z,95683.72
2023-08-19T04:06:44.059Z,95683.09
2023-08-19T04:09:13.634Z,95687.06
2023-08-19T04:11:40.912Z,95692.47
2023-08-19T04:14:08.170Z,95696.41
2023-08-19T04:16:38.425Z,95691.88
2023-08-19T04:19:05.751Z,95695.81
2023-08-19T04:21:33.245Z,95689.78
2023-08-19T04:24:00.501Z,95694.84
2023-08-19T04:26:27.660Z,95695.00
2023-08-19T04:28:55.098Z,95695.59
2023-08-19T04:31:23.607Z,95697.59
2023-08-19T04:33:54.881Z,95696.13
2023-08-19T04:36:23.118Z,95697.00
2023-08-19T04:38:50.615Z,95703.75
2023-08-19T04:41:18.786Z,95706.94
2023-08-19T04:43:47.864Z,95708.22
2023-08-19T04:46:16.746Z,95716.94
2023-08-19T04:48:44.204Z,95713.03
2023-08-19T04:51:11.525Z,95719.41
2023-08-19T04:53:38.728Z,95731.38
2023-08-19T04:56:06.082Z,95729.72
2023-08-19T04:58:36.371Z,95728.69
2023-08-19T05:01:04.162Z,95722.97
2023-08-19T05:03:33.828Z,95731.56
2023-08-19T05:06:01.634Z,95725.22
2023-08-19T05:08:36.576Z,95729.16
2023-08-19T05:11:04.121Z,95725.88
2023-08-19T05:13:31.428Z,95728.88
2023-08-19T05:16:01.982Z,95731.09
2023-08-19T05:18:29.829Z,95720.56
2023-08-19T05:20:57.050Z,95723.69
2023-08-19T05:23:25.164Z,95731.69
2023-08-19T05:25:52.652Z,95722.84
2023-08-19T05:28:19.886Z,95726.88
2023-08-19T05:30:47.084Z,95733.56
2023-08-19T05:33:14.391Z,95728.66
2023-08-19T05:35:41.726Z,95733.06
2023-08-19T05:38:09.010Z,95743.44
2023-08-19T05:40:36.341Z,95741.00
2023-08-19T05:43:03.885Z,95745.63
2023-08-19T05:45:34.298Z,95743.00
2023-08-19T05:48:01.618Z,95744.44
2023-08-19T05:50:28.940Z,95747.69
2023-08-19T05:52:56.344Z,95757.06
2023-08-19T05:55:23.577Z,95749.78
2023-08-19T05:57:50.971Z,95752.84
2023-08-19T06:00:18.179Z,95748.00
2023-08-19T06:02:45.422Z,95743.09
2023-08-19T06:05:12.733Z,95750.72
2023-08-19T06:07:39.983Z,95755.47
2023-08-19T06:10:07.471Z,95752.44
2023-08-19T06:12:34.856Z,95754.25
2023-08-19T06:15:02.041Z,95749.00
2023-08-19T06:17:29.239Z,95758.50
2023-08-19T06:19:56.483Z,95761.59
2023-08-19T06:22:23.832Z,95767.19
2023-08-19T06:24:50.992Z,95770.34
2023-08-19T06:27:18.144Z,95771.56
2023-08-19T06:29:45.379Z,95774.59
2023-08-19T06:32:13.128Z,95772.78
2023-08-19T06:34:41.639Z,95772.66
2023-08-19T06:37:13.222Z,95767.44
2023-08-19T06:39:46.576Z,95776.44
2023-08-19T06:42:16.230Z,95776.84
2023-08-19T06:44:44.731Z,95780.91
2023-08-19T06:47:14.059Z,95790.59
2023-08-19T06:49:41.436Z,95788.25
2023-08-19T06:52:10.371Z,95794.75
2023-08-19T06:54:37.824Z,95793.84
2023-08-19T06:57:11.025Z,95805.88
2023-08-19T06:59:40.091Z,95795.22
2023-08-19T07:02:09.542Z,95800.28
2023-08-19T07:04:37.247Z,95792.97
2023-08-19T07:07:05.821Z,95800.22
2023-08-19T07:09:35.200Z,95799.09
2023-08-19T07:12:03.461Z,95810.66
2023-08-19T07:14:30.960Z,95806.38
2023-08-19T07:17:04.618Z,95809.84
2023-08-19T07:19:38.351Z,95810.81
2023-08-19T07:22:08.836Z,95814.78
2023-08-19T07:24:36.561Z,95808.34
2023-08-19T07:27:06.365Z,95814.53
2023-08-19T07:29:36.237Z,95804.63
2023-08-19T07:32:04.366Z,95822.16
2023-08-19T07:34:31.722Z,95815.94
2023-08-19T07:36:59.480Z,95820.75
2023-08-19T07:39:27.988Z,95819.13
2023-08-19T07:41:55.303Z,95822.91
2023-08-19T07:44:22.771Z,95824.81
2023-08-19T07:46:50.148Z,95835.09
2023-08-19T07:49:17.379Z,95825.88
2023-08-19T07:51:44.629Z,95823.69
2023-08-19T07:54:11.965Z,95826.53
2023-08-19T07:56:39.178Z,95829.88
2023-08-19T07:59:06.580Z,95836.41
2023-08-19T08:01:34.159Z,95844.91
2023-08-19T08:04:01.637Z,95834.50
2023-08-19T08:06:29.010Z,95840.97
2023-08-19T08:08:56.328Z,95837.69
2023-08-19T08:11:23.619Z,95841.44
2023-08-19T08:13:50.821Z,95848.53
2023-08-19T08:16:18.006Z,95836.63
2023-08-19T08:18:45.230Z,95839.44
2023-08-19T08:21:13.823Z,95838.41
2023-08-19T08:23:41.778Z,95838.69
2023-08-19T08:26:09.735Z,95835.19
2023-08-19T08:28:37.685Z,95831.41
2023-08-19T08:31:05.513Z,95831.09
2023-08-19T08:33:32.825Z,95838.69
2023-08-19T08:36:01.613Z,95835.94
2023-08-19T08:38:28.854Z,95833.56
2023-08-19T08:40:58.356Z,95831.28
2023-08-19T08:43:26.133Z,95831.16
2023-08-19T08:45:54.589Z,95832.59
2023-08-19T08:48:23.333Z,95832.16
2023-08-19T08:50:51.309Z,95826.31
2023-08-19T08:53:19.358Z,95834.00
2023-08-19T08:55:47.104Z,95825.59
2023-08-19T08:58:14.474Z,95830.13
2023-08-19T09:00:42.743Z,95834.84
2023-08-19T09:03:11.404Z,95837.78
2023-08-19T09:05:42.157Z,95831.63
2023-08-19T09:08:14.832Z,95834.66
2023-08-19T09:10:44.640Z,95830.09
2023-08-19T09:13:15.344Z,95834.50
2023-08-19T09:15:42.833Z,95822.06
2023-08-19T09:18:11.046Z,95832.72
2023-08-19T09:20:38.381Z,95825.50
2023-08-19T09:23:11.093Z,95830.69
2023-08-19T09:25:39.229Z,95824.50
2023-08-19T09:28:07.158Z,95835.69
2023-08-19T09:30:35.533Z,95829.38
2023-08-19T09:33:03.756Z,95833.25
2023-08-19T09:35:57.041Z,95826.63
2023-08-19T09:38:26.890Z,95832.44
2023-08-19T09:40:59.393Z,95829.22
2023-08-19T09:43:27.432Z,95824.78
2023-08-19T09:46:01.718Z,95822.53
2023-08-19T09:48:28.979Z,95832.31
2023-08-19T09:50:56.227Z,95823.63
2023-08-19T09:53:23.553Z,95827.31
2023-08-19T09:55:51.741Z,95823.75
2023-08-19T09:58:18.980Z,95829.13
2023-08-19T10:00:47.171Z,95829.44
2023-08-19T10:03:16.291Z,95829.31
2023-08-19T10:05:50.379Z,95827.94
2023-08-19T10:08:24.371Z,95835.22
2023-08-19T10:10:51.896Z,95833.88
2023-08-19T10:13:23.018Z,95830.19
2023-08-19T10:15:52.680Z,95823.91
2023-08-19T10:18:26.473Z,95832.81
2023-08-19T10:21:00.165Z,95824.88
2023-08-19T10:23:29.164Z,95830.63
2023-08-19T10:25:56.509Z,95832.97
2023-08-19T10:28:26.257Z,95831.28
2023-08-19T10:31:16.687Z,95830.38
2023-08-19T10:34:00.094Z,95833.03
2023-08-19T10:36:41.000Z,95827.91
2023-08-19T10:39:18.285Z,95825.47
2023-08-19T10:41:45.588Z,95825.78
2023-08-19T10:44:14.157Z,95826.16
2023-08-19T10:46:46.724Z,95821.03
2023-08-19T10:49:24.828Z,95818.59
2023-08-19T10:52:04.749Z,95829.88
2023-08-19T10:54:40.047Z,95828.31
2023-08-19T10:57:22.261Z,95827.31
2023-08-19T10:59:57.563Z,95818.00
2023-08-19T11:02:26.154Z,95826.47
2023-08-19T11:04:54.645Z,95827.69
2023-08-19T11:07:22.575Z,95828.03
2023-08-19T11:09:51.332Z,95824.56
2023-08-19T11:12:20.878Z,95826.56
2023-08-19T11:14:49.820Z,95819.13
2023-08-19T11:17:18.256Z,95819.31
2023-08-19T11:19:47.392Z,95826.91
2023-08-19T11:22:15.886Z,95828.59
2023-08-19T11:24:43.179Z,95818.06
2023-08-19T11:27:10.575Z,95816.97
2023-08-19T11:29:41.576Z,95823.53
2023-08-19T11:32:09.192Z,95821.31
2023-08-19T11:34:36.418Z,95815.72
2023-08-19T11:37:06.903Z,95818.97
2023-08-19T11:39:34.553Z,95822.03
2023-08-19T11:42:03.722Z,95821.84
2023-08-19T11:44:32.437Z,95827.19
2023-08-19T11:46:59.932Z,95819.28
2023-08-19T11:49:31.039Z,95824.75
2023-08-19T11:51:59.759Z,95823.97
2023-08-19T11:54:27.733Z,95822.22
2023-08-19T11:57:00.306Z,95818.44
2023-08-19T11:59:35.287Z,95817.84
2023-08-19T12:02:09.418Z,95822.81
2023-08-19T12:04:36.960Z,95820.91
2023-08-19T12:07:13.802Z,95824.63
2023-08-19T12:09:41.384Z,95824.19
2023-08-19T12:12:11.082Z,95826.97
2023-08-19T12:14:40.495Z,95822.72
2023-08-19T12:17:08.615Z,95834.66
2023-08-19T12:19:36.528Z,95823.84
2023-08-19T12:22:05.349Z,95829.44
2023-08-19T12:24:33.383Z,95816.78
2023-08-19T12:27:00.627Z,95817.19
2023-08-19T12:29:29.649Z,95815.94
2023-08-19T12:31:56.826Z,95825.69
2023-08-19T12:34:24.064Z,95822.94
2023-08-19T12:36:52.578Z,95816.00
2023-08-19T12:39:21.111Z,95812.91
2023-08-19T12:41:48.905Z,95811.72
2023-08-19T12:44:16.357Z,95804.44
2023-08-19T12:46:45.518Z,95803.06
2023-08-19T12:49:13.879Z,95809.22
2023-08-19T12:51:41.406Z,95811.75
2023-08-19T12:54:10.208Z,95810.50
2023-08-19T12:56:37.578Z,95812.78
2023-08-19T12:59:05.013Z,95801.69
2023-08-19T13:01:32.354Z,95797.59
2023-08-19T13:03:59.636Z,95801.91
2023-08-19T13:06:26.965Z,95799.94
2023-08-19T13:08:54.902Z,95801.31
2023-08-19T13:11:22.763Z,95799.06
2023-08-19T13:13:50.047Z,95801.03
2023-08-19T13:16:17.288Z,95799.47
2023-08-19T13:18:44.559Z,95803.50
2023-08-19T13:21:11.982Z,95801.72
2023-08-19T13:23:42.383Z,95810.91
2023-08-19T13:26:10.161Z,95804.06
2023-08-19T13:28:37.389Z,95809.72
2023-08-19T13:31:05.967Z,95804.06
2023-08-19T13:33:33.452Z,95809.22
2023-08-19T13:36:00.778Z,95815.97
2023-08-19T13:38:28.093Z,95806.47
2023-08-19T13:40:55.341Z,95802.75
2023-08-19T13:43:22.750Z,95806.03
2023-08-19T13:45:49.969Z,95814.28
2023-08-19T13:48:17.400Z,95804.31
2023-08-19T13:50:45.572Z,95803.91
2023-08-19T13:53:13.042Z,95806.09
2023-08-19T13:55:43.078Z,95808.63
2023-08-19T13:58:11.124Z,95804.91
2023-08-19T14:00:38.480Z,95805.88
2023-08-19T14:03:05.770Z,95800.66
2023-08-19T14:05:33.147Z,95792.53
2023-08-19T14:08:01.192Z,95803.31
2023-08-19T14:10:28.418Z,95807.66
2023-08-19T14:12:55.628Z,95805.50
2023-08-19T14:15:22.985Z,95801.97
2023-08-19T14:17:50.594Z,95800.88
2023-08-19T14:20:17.844Z,95801.94
2023-08-19T14:22:45.007Z,95800.78
2023-08-19T14:25:12.274Z,95791.38
2023-08-19T14:27:40.083Z,95806.47
2023-08-19T14:30:07.858Z,95793.44
2023-08-19T14:32:35.318Z,95800.41
2023-08-19T14:35:02.663Z,95799.03
2023-08-19T14:37:30.032Z,95799.81
2023-08-19T14:39:57.239Z,95794.50
2023-08-19T14:42:24.455Z,95793.44
2023-08-19T14:44:52.140Z,95801.56
2023-08-19T14:47:19.591Z,95801.31
2023-08-19T14:49:48.034Z,95798.69
2023-08-19T14:52:19.065Z,95800.34
2023-08-19T14:54:46.330Z,95802.34
2023-08-19T14:57:13.565Z,95804.88
2023-08-19T14:59:40.725Z,95808.97
2023-08-19T15:02:09.049Z,95814.06
2023-08-19T15:04:36.425Z,95806.81
2023-08-19T15:07:03.959Z,95806.22
2023-08-19T15:09:31.368Z,95813.09
2023-08-19T15:12:01.276Z,95802.31
2023-08-19T15:14:28.708Z,95805.66
2023-08-19T15:16:55.948Z,95810.56
2023-08-19T15:19:23.078Z,95812.69
2023-08-19T15:21:50.301Z,95809.56
2023-08-19T15:24:17.519Z,95814.88
2023-08-19T15:26:44.764Z,95811.34
2023-08-19T15:29:12.129Z,95809.94
2023-08-19T15:31:39.335Z,95817.19
2023-08-19T15:34:06.573Z,95817.19
2023-08-19T15:36:33.812Z,95815.03
2023-08-19T15:39:01.026Z,95820.31
2023-08-19T15:41:29.655Z,95818.56
2023-08-19T15:43:58.437Z,95816.03
2023-08-19T15:46:25.689Z,95817.59
2023-08-19T15:48:53.330Z,95819.44
2023-08-19T15:51:20.513Z,95822.28
2023-08-19T15:53:48.325Z,95815.50
2023-08-19T15:56:15.534Z,95820.28
2023-08-19T15:58:42.856Z,95814.34
2023-08-19T16:01:10.527Z,95810.69
2023-08-19T16:03:39.119Z,95804.25
2023-08-19T16:06:06.304Z,95806.56
2023-08-19T16:08:33.702Z,95814.13
2023-08-19T16:11:05.841Z,95812.19
2023-08-19T16:13:33.780Z,95820.31
2023-08-19T16:16:01.693Z,95822.47
2023-08-19T16:18:33.071Z,95817.00
2023-08-19T16:21:00.822Z,95821.09
2023-08-19T16:23:29.386Z,95824.91
2023-08-19T16:25:56.820Z,95824.25
2023-08-19T16:28:24.126Z,95817.38
2023-08-19T16:30:51.727Z,95827.94
2023-08-19T16:33:19.369Z,95823.03
2023-08-19T16:35:46.793Z,95821.09
2023-08-19T16:38:14.284Z,95820.81
2023-08-19T16:40:41.626Z,95825.94
2023-08-19T16:43:08.994Z,95825.16
2023-08-19T16:45:36.210Z,95820.28
2023-08-19T16:48:04.362Z,95824.00
2023-08-19T16:50:31.562Z,95823.63
2023-08-19T16:52:58.788Z,95825.47
2023-08-19T16:55:26.061Z,95824.41
2023-08-19T16:57:53.216Z,95818.88
2023-08-19T17:00:23.950Z,95828.31
2023-08-19T17:02:51.314Z,95830.13
2023-08-19T17:05:18.637Z,95829.44
2023-08-19T17:07:45.887Z,95831.28
2023-08-19T17:10:13.105Z,95836.22
2023-08-19T17:12:40.321Z,95841.91
2023-08-19T17:15:07.882Z,95838.88
2023-08-19T17:17:35.473Z,95834.53
2023-08-19T17:20:04.843Z,95846.78
2023-08-19T17:22:38.925Z,95835.31
2023-08-19T17:25:06.642Z,95837.38
2023-08-19T17:27:34.207Z,95837.38
2023-08-19T17:30:01.668Z,95839.13
2023-08-19T17:32:29.466Z,95847.16
2023-08-19T17:34:56.679Z,95844.06
2023-08-19T17:37:23.989Z,95846.97
2023-08-19T17:39:51.404Z,95850.50
2023-08-19T17:42:19.627Z,95846.41
2023-08-19T17:44:54.313Z,95848.97
2023-08-19T17:47:21.618Z,95849.59
2023-08-19T17:49:49.039Z,95855.25
2023-08-19T17:52:16.455Z,95848.38
2023-08-19T17:54:43.958Z,95854.34
2023-08-19T17:57:13.984Z,95852.13
2023-08-19T17:59:41.362Z,95857.81
2023-08-19T18:02:08.800Z,95857.19
2023-08-19T18:04:36.182Z,95858.72
2023-08-19T18:07:03.656Z,95854.94
2023-08-19T18:09:30.961Z,95860.31
2023-08-19T18:11:58.322Z,95859.78
2023-08-19T18:14:25.615Z,95856.00
2023-08-19T18:16:53.859Z,95859.28
2023-08-19T18:19:35.903Z,95865.56
2023-08-19T18:22:05.356Z,95868.34
2023-08-19T18:24:35.268Z,95866.41
2023-08-19T18:27:03.881Z,95873.00
2023-08-19T18:29:31.736Z,95874.47
2023-08-19T18:31:58.985Z,95873.66
2023-08-19T18:34:26.333Z,95883.38
2023-08-19T18:36:53.776Z,95881.06
2023-08-19T18:39:21.047Z,95890.72
2023-08-19T18:41:48.289Z,95893.69
2023-08-19T18:44:16.276Z,95893.63
2023-08-19T18:46:43.984Z,95899.75
2023-08-19T18:49:11.700Z,95898.31
2023-08-19T18:51:39.119Z,95906.00
2023-08-19T18:54:06.816Z,95906.00
2023-08-19T18:56:34.757Z,95900.81
2023-08-19T18:59:02.956Z,95885.22
2023-08-19T19:01:30.333Z,95892.41
2023-08-19T19:03:59.197Z,95907.81
2023-08-19T19:06:26.592Z,95917.72
2023-08-19T19:08:58.986Z,95908.94
2023-08-19T19:11:26.353Z,95915.63
2023-08-19T19:13:53.512Z,95920.47
2023-08-19T19:16:20.721Z,95919.44
2023-08-19T19:18:47.918Z,95924.16
2023-08-19T19:21:15.103Z,95928.47
2023-08-19T19:23:42.276Z,95932.28
2023-08-19T19:26:09.550Z,95936.28
2023-08-19T19:28:36.777Z,95929.00
2023-08-19T19:31:05.970Z,95939.38
2023-08-19T19:33:33.379Z,95930.44
2023-08-19T19:36:00.545Z,95941.28
2023-08-19T19:38:27.629Z,95938.81
2023-08-19T19:40:58.114Z,95950.22
2023-08-19T19:43:25.365Z,95957.22
2023-08-19T19:45:53.567Z,95948.72
2023-08-19T19:48:20.756Z,95955.16
2023-08-19T19:50:47.908Z,95954.06
2023-08-19T19:53:15.457Z,95965.09
2023-08-19T19:55:42.924Z,95958.78
2023-08-19T19:58:10.115Z,95962.22
2023-08-19T20:00:37.724Z,95961.16
2023-08-19T20:03:05.132Z,95961.75
2023-08-19T20:05:32.388Z,95955.78
2023-08-19T20:07:59.537Z,95959.97
2023-08-19T20:10:28.383Z,95962.31
2023-08-19T20:12:56.466Z,95966.81
2023-08-19T20:15:25.905Z,95958.72
2023-08-19T20:17:54.572Z,95969.22
2023-08-19T20:20:21.812Z,95965.34
2023-08-19T20:22:49.815Z,95970.63
2023-08-19T20:25:17.080Z,95974.34
2023-08-19T20:27:44.558Z,95983.69
2023-08-19T20:30:12.306Z,95976.81
2023-08-19T20:32:39.699Z,95977.31
2023-08-19T20:35:07.684Z,95974.34
2023-08-19T20:37:35.264Z,95982.25
2023-08-19T20:40:02.580Z,95969.84
2023-08-19T20:42:29.904Z,95973.69
2023-08-19T20:44:57.033Z,95979.84
2023-08-19T20:47:24.312Z,95983.56
2023-08-19T20:49:51.550Z,95987.84
2023-08-19T20:52:18.859Z,95984.69
2023-08-19T20:54:46.124Z,95982.44
2023-08-19T20:57:13.451Z,95979.72
2023-08-19T20:59:40.586Z,95980.84
2023-08-19T21:02:07.898Z,95979.69
2023-08-19T21:04:35.196Z,95978.19
2023-08-19T21:07:02.364Z,95978.00
2023-08-19T21:09:29.523Z,95980.38
2023-08-19T21:11:56.750Z,95975.84
2023-08-19T21:14:23.988Z,95983.59
2023-08-19T21:16:51.142Z,95984.06
2023-08-19T21:19:18.275Z,95978.56
2023-08-19T21:21:45.835Z,95986.13
2023-08-19T21:24:13.110Z,95972.66
2023-08-19T21:26:40.252Z,95984.72
2023-08-19T21:29:07.438Z,95986.47
2023-08-19T21:31:34.610Z,95992.09
2023-08-19T21:34:01.825Z,95984.22
2023-08-19T21:36:29.107Z,95984.22
2023-08-19T21:38:56.480Z,95989.84
2023-08-19T21:41:23.745Z,95985.91
2023-08-19T21:43:50.921Z,95986.16
2023-08-19T21:46:18.073Z,95988.34
2023-08-19T21:48:47.301Z,95990.22
2023-08-19T21:51:14.792Z,95994.09
2023-08-19T21:53:42.654Z,95990.72
2023-08-19T21:56:10.062Z,96001.28
2023-08-19T21:58:37.169Z,95998.13
2023-08-19T22:01:04.808Z,95996.53
2023-08-19T22:03:33.899Z,95996.53
2023-08-19T22:06:04.494Z,95999.19
2023-08-19T22:08:31.879Z,95998.69
2023-08-19T22:11:00.393Z,95998.59
2023-08-19T22:13:27.735Z,95998.69
2023-08-19T22:15:54.991Z,95996.13
2023-08-19T22:18:22.149Z,95994.66
2023-08-19T22:20:51.639Z,95998.81
2023-08-19T22:23:19.812Z,95992.13
2023-08-19T22:25:47.069Z,95994.78
2023-08-19T22:28:14.507Z,95998.47
2023-08-19T22:30:41.880Z,95988.47
2023-08-19T22:33:09.238Z,95996.09
2023-08-19T22:35:36.752Z,95996.81
2023-08-19T22:38:04.262Z,95991.97
2023-08-19T22:40:31.526Z,95996.63
2023-08-19T22:42:58.796Z,96003.22
2023-08-19T22:45:26.006Z,95997.78
2023-08-19T22:47:53.273Z,95996.00
2023-08-19T22:50:20.583Z,95995.66
2023-08-19T22:52:47.984Z,95991.97
2023-08-19T22:55:15.230Z,95993.91
2023-08-19T22:57:46.009Z,95999.53
2023-08-19T23:00:13.554Z,95991.44
2023-08-19T23:02:40.996Z,95999.81
2023-08-19T23:05:08.782Z,95992.16
2023-08-19T23:07:36.958Z,95993.56
2023-08-19T23:10:05.202Z,95990.41
2023-08-19T23:12:32.479Z,95987.84
2023-08-19T23:14:59.714Z,95996.38
2023-08-19T23:17:27.096Z,95989.59
2023-08-19T23:19:54.419Z,95986.47
2023-08-19T23:22:21.885Z,95990.56
2023-08-19T23:24:49.029Z,95990.31
2023-08-19T23:27:16.178Z,95983.22
2023-08-19T23:29:43.517Z,95986.88
2023-08-19T23:32:10.721Z,95986.25
2023-08-19T23:34:38.043Z,95983.91
2023-08-19T23:37:05.247Z,95973.53
2023-08-19T23:39:32.495Z,95979.38
2023-08-19T23:41:59.574Z,95982.84
2023-08-19T23:44:26.823Z,95974.59
2023-08-19T23:46:54.201Z,95974.75
2023-08-19T23:49:21.721Z,95969.06
2023-08-19T23:51:49.864Z,95975.28
2023-08-19T23:54:17.301Z,95972.81
2023-08-19T23:56:44.732Z,95975.63
2023-08-19T23:59:12.138Z,95960.84
